sensor_id;sensor_type;location;lat;lon;timestamp;P1;durP1;ratioP1;P2;durP2;ratioP2
47844;SDS011;33605;48.822;8.796;2024-01-16T00:00:04;4.40;;;4.00;;
47844;SDS011;33605;48.822;8.796;2024-01-16T00:02:30;6.90;;;3.80;;
47844;SDS011;33605;48.822;8.796;2024-01-16T00:04:56;8.63;;;4.60;;
47844;SDS011;33605;48.822;8.796;2024-01-16T00:07:21;4.73;;;3.67;;
47844;SDS011;33605;48.822;8.796;2024-01-16T00:09:47;8.50;;;5.00;;
47844;SDS011;33605;48.822;8.796;2024-01-16T00:12:12;4.87;;;3.80;;
47844;SDS011;33605;48.822;8.796;2024-01-16T00:14:38;8.87;;;4.57;;
47844;SDS011;33605;48.822;8.796;2024-01-16T00:17:04;6.10;;;4.07;;
47844;SDS011;33605;48.822;8.796;2024-01-16T00:19:30;7.10;;;4.47;;
47844;SDS011;33605;48.822;8.796;2024-01-16T00:21:56;5.37;;;3.70;;
47844;SDS011;33605;48.822;8.796;2024-01-16T00:24:22;8.27;;;4.17;;
47844;SDS011;33605;48.822;8.796;2024-01-16T00:26:48;8.33;;;4.73;;
47844;SDS011;33605;48.822;8.796;2024-01-16T00:29:15;5.73;;;3.87;;
47844;SDS011;33605;48.822;8.796;2024-01-16T00:31:40;6.07;;;4.50;;
47844;SDS011;33605;48.822;8.796;2024-01-16T00:34:06;5.33;;;3.50;;
47844;SDS011;33605;48.822;8.796;2024-01-16T00:36:32;12.27;;;4.50;;
47844;SDS011;33605;48.822;8.796;2024-01-16T00:38:58;5.43;;;4.33;;
47844;SDS011;33605;48.822;8.796;2024-01-16T00:41:28;5.20;;;4.20;;
47844;SDS011;33605;48.822;8.796;2024-01-16T00:43:53;7.23;;;4.40;;
47844;SDS011;33605;48.822;8.796;2024-01-16T00:46:22;5.70;;;3.70;;
47844;SDS011;33605;48.822;8.796;2024-01-16T00:48:48;7.73;;;5.10;;
47844;SDS011;33605;48.822;8.796;2024-01-16T00:51:14;4.37;;;3.97;;
47844;SDS011;33605;48.822;8.796;2024-01-16T00:53:43;11.63;;;5.00;;
47844;SDS011;33605;48.822;8.796;2024-01-16T00:56:11;7.40;;;4.40;;
47844;SDS011;33605;48.822;8.796;2024-01-16T00:58:37;6.60;;;4.20;;
47844;SDS011;33605;48.822;8.796;2024-01-16T01:01:03;8.40;;;4.47;;
47844;SDS011;33605;48.822;8.796;2024-01-16T01:03:29;6.30;;;4.47;;
47844;SDS011;33605;48.822;8.796;2024-01-16T01:05:55;6.97;;;4.60;;
47844;SDS011;33605;48.822;8.796;2024-01-16T01:08:21;6.43;;;4.30;;
47844;SDS011;33605;48.822;8.796;2024-01-16T01:10:46;5.57;;;4.40;;
47844;SDS011;33605;48.822;8.796;2024-01-16T01:13:12;7.70;;;4.23;;
47844;SDS011;33605;48.822;8.796;2024-01-16T01:15:38;5.80;;;4.87;;
47844;SDS011;33605;48.822;8.796;2024-01-16T01:18:03;7.53;;;4.20;;
47844;SDS011;33605;48.822;8.796;2024-01-16T01:20:31;10.17;;;4.40;;
47844;SDS011;33605;48.822;8.796;2024-01-16T01:22:57;5.43;;;4.17;;
47844;SDS011;33605;48.822;8.796;2024-01-16T01:25:23;7.90;;;3.97;;
47844;SDS011;33605;48.822;8.796;2024-01-16T01:27:51;5.50;;;3.60;;
47844;SDS011;33605;48.822;8.796;2024-01-16T01:30:17;8.67;;;4.33;;
47844;SDS011;33605;48.822;8.796;2024-01-16T01:32:43;7.70;;;4.80;;
47844;SDS011;33605;48.822;8.796;2024-01-16T01:35:09;5.97;;;4.43;;
47844;SDS011;33605;48.822;8.796;2024-01-16T01:37:36;6.53;;;4.27;;
47844;SDS011;33605;48.822;8.796;2024-01-16T01:40:02;11.30;;;4.57;;
47844;SDS011;33605;48.822;8.796;2024-01-16T01:42:28;4.80;;;3.80;;
47844;SDS011;33605;48.822;8.796;2024-01-16T01:44:54;8.53;;;5.10;;
47844;SDS011;33605;48.822;8.796;2024-01-16T01:47:20;7.97;;;4.67;;
47844;SDS011;33605;48.822;8.796;2024-01-16T01:49:46;6.33;;;3.87;;
47844;SDS011;33605;48.822;8.796;2024-01-16T01:52:12;5.30;;;4.73;;
47844;SDS011;33605;48.822;8.796;2024-01-16T01:54:38;8.33;;;4.77;;
47844;SDS011;33605;48.822;8.796;2024-01-16T01:57:06;7.10;;;4.63;;
47844;SDS011;33605;48.822;8.796;2024-01-16T01:59:34;8.73;;;4.37;;
47844;SDS011;33605;48.822;8.796;2024-01-16T02:02:00;7.00;;;4.87;;
47844;SDS011;33605;48.822;8.796;2024-01-16T02:04:28;6.30;;;4.70;;
47844;SDS011;33605;48.822;8.796;2024-01-16T02:06:56;8.47;;;4.83;;
47844;SDS011;33605;48.822;8.796;2024-01-16T02:09:22;7.00;;;4.70;;
47844;SDS011;33605;48.822;8.796;2024-01-16T02:11:48;8.80;;;4.70;;
47844;SDS011;33605;48.822;8.796;2024-01-16T02:14:14;10.27;;;4.70;;
47844;SDS011;33605;48.822;8.796;2024-01-16T02:16:41;6.43;;;4.93;;
47844;SDS011;33605;48.822;8.796;2024-01-16T02:19:10;8.87;;;5.50;;
47844;SDS011;33605;48.822;8.796;2024-01-16T02:21:39;5.30;;;4.17;;
47844;SDS011;33605;48.822;8.796;2024-01-16T02:24:15;9.97;;;4.70;;
47844;SDS011;33605;48.822;8.796;2024-01-16T02:26:42;8.97;;;4.80;;
47844;SDS011;33605;48.822;8.796;2024-01-16T02:29:09;8.70;;;5.23;;
47844;SDS011;33605;48.822;8.796;2024-01-16T02:31:37;6.70;;;5.47;;
47844;SDS011;33605;48.822;8.796;2024-01-16T02:34:02;10.20;;;4.83;;
47844;SDS011;33605;48.822;8.796;2024-01-16T02:36:29;6.97;;;4.60;;
47844;SDS011;33605;48.822;8.796;2024-01-16T02:38:55;8.20;;;5.00;;
47844;SDS011;33605;48.822;8.796;2024-01-16T02:41:24;7.00;;;4.73;;
47844;SDS011;33605;48.822;8.796;2024-01-16T02:43:50;7.63;;;4.80;;
47844;SDS011;33605;48.822;8.796;2024-01-16T02:46:16;8.37;;;4.97;;
47844;SDS011;33605;48.822;8.796;2024-01-16T02:48:42;7.30;;;4.50;;
47844;SDS011;33605;48.822;8.796;2024-01-16T02:51:08;6.77;;;4.20;;
47844;SDS011;33605;48.822;8.796;2024-01-16T02:53:34;6.63;;;4.60;;
47844;SDS011;33605;48.822;8.796;2024-01-16T02:56:00;14.13;;;4.63;;
47844;SDS011;33605;48.822;8.796;2024-01-16T02:58:26;7.00;;;4.63;;
47844;SDS011;33605;48.822;8.796;2024-01-16T03:00:52;12.60;;;4.67;;
47844;SDS011;33605;48.822;8.796;2024-01-16T03:03:18;4.93;;;4.00;;
47844;SDS011;33605;48.822;8.796;2024-01-16T03:05:45;9.17;;;5.70;;
47844;SDS011;33605;48.822;8.796;2024-01-16T03:08:11;7.50;;;5.00;;
47844;SDS011;33605;48.822;8.796;2024-01-16T03:10:37;6.27;;;4.53;;
47844;SDS011;33605;48.822;8.796;2024-01-16T03:13:02;6.07;;;4.70;;
47844;SDS011;33605;48.822;8.796;2024-01-16T03:15:28;6.40;;;4.73;;
47844;SDS011;33605;48.822;8.796;2024-01-16T03:17:57;6.50;;;5.03;;
47844;SDS011;33605;48.822;8.796;2024-01-16T03:20:29;7.47;;;5.00;;
47844;SDS011;33605;48.822;8.796;2024-01-16T03:22:54;8.23;;;4.90;;
47844;SDS011;33605;48.822;8.796;2024-01-16T03:25:20;8.10;;;4.80;;
47844;SDS011;33605;48.822;8.796;2024-01-16T03:27:46;7.33;;;5.03;;
47844;SDS011;33605;48.822;8.796;2024-01-16T03:30:15;6.80;;;4.50;;
47844;SDS011;33605;48.822;8.796;2024-01-16T03:32:41;6.07;;;4.10;;
47844;SDS011;33605;48.822;8.796;2024-01-16T03:35:07;5.53;;;4.03;;
47844;SDS011;33605;48.822;8.796;2024-01-16T03:37:33;9.20;;;4.80;;
47844;SDS011;33605;48.822;8.796;2024-01-16T03:39:59;9.10;;;4.67;;
47844;SDS011;33605;48.822;8.796;2024-01-16T03:42:25;10.77;;;5.10;;
47844;SDS011;33605;48.822;8.796;2024-01-16T03:44:53;7.43;;;4.60;;
47844;SDS011;33605;48.822;8.796;2024-01-16T03:47:19;7.30;;;3.97;;
47844;SDS011;33605;48.822;8.796;2024-01-16T03:49:45;6.87;;;4.53;;
47844;SDS011;33605;48.822;8.796;2024-01-16T03:52:11;6.97;;;4.97;;
47844;SDS011;33605;48.822;8.796;2024-01-16T03:54:37;8.33;;;5.37;;
47844;SDS011;33605;48.822;8.796;2024-01-16T03:57:03;11.23;;;4.73;;
47844;SDS011;33605;48.822;8.796;2024-01-16T03:59:28;7.27;;;4.43;;
47844;SDS011;33605;48.822;8.796;2024-01-16T04:01:54;5.03;;;3.90;;
47844;SDS011;33605;48.822;8.796;2024-01-16T04:04:23;6.37;;;4.00;;
47844;SDS011;33605;48.822;8.796;2024-01-16T04:06:49;7.63;;;4.67;;
47844;SDS011;33605;48.822;8.796;2024-01-16T04:09:15;7.47;;;4.90;;
47844;SDS011;33605;48.822;8.796;2024-01-16T04:11:40;6.60;;;4.00;;
47844;SDS011;33605;48.822;8.796;2024-01-16T04:14:06;6.47;;;3.80;;
47844;SDS011;33605;48.822;8.796;2024-01-16T04:16:34;6.73;;;4.57;;
47844;SDS011;33605;48.822;8.796;2024-01-16T04:19:03;5.70;;;3.60;;
47844;SDS011;33605;48.822;8.796;2024-01-16T04:21:28;8.03;;;3.47;;
47844;SDS011;33605;48.822;8.796;2024-01-16T04:23:56;8.17;;;3.53;;
47844;SDS011;33605;48.822;8.796;2024-01-16T04:26:22;4.63;;;3.67;;
47844;SDS011;33605;48.822;8.796;2024-01-16T04:28:48;7.37;;;4.00;;
47844;SDS011;33605;48.822;8.796;2024-01-16T04:31:14;7.07;;;3.70;;
47844;SDS011;33605;48.822;8.796;2024-01-16T04:33:42;6.67;;;3.97;;
47844;SDS011;33605;48.822;8.796;2024-01-16T04:36:10;5.70;;;4.03;;
47844;SDS011;33605;48.822;8.796;2024-01-16T04:38:38;6.10;;;4.07;;
47844;SDS011;33605;48.822;8.796;2024-01-16T04:41:04;6.57;;;3.60;;
47844;SDS011;33605;48.822;8.796;2024-01-16T04:43:30;5.90;;;3.90;;
47844;SDS011;33605;48.822;8.796;2024-01-16T04:45:58;6.17;;;3.70;;
47844;SDS011;33605;48.822;8.796;2024-01-16T04:48:24;7.10;;;4.10;;
47844;SDS011;33605;48.822;8.796;2024-01-16T04:50:53;12.07;;;4.73;;
47844;SDS011;33605;48.822;8.796;2024-01-16T04:53:19;5.70;;;3.67;;
47844;SDS011;33605;48.822;8.796;2024-01-16T04:55:44;7.40;;;4.50;;
47844;SDS011;33605;48.822;8.796;2024-01-16T04:58:10;8.47;;;4.50;;
47844;SDS011;33605;48.822;8.796;2024-01-16T05:00:36;7.80;;;4.00;;
47844;SDS011;33605;48.822;8.796;2024-01-16T05:03:05;6.53;;;4.27;;
47844;SDS011;33605;48.822;8.796;2024-01-16T05:05:30;4.70;;;3.97;;
47844;SDS011;33605;48.822;8.796;2024-01-16T05:07:56;9.33;;;4.30;;
47844;SDS011;33605;48.822;8.796;2024-01-16T05:10:22;5.83;;;4.07;;
47844;SDS011;33605;48.822;8.796;2024-01-16T05:12:47;5.53;;;4.00;;
47844;SDS011;33605;48.822;8.796;2024-01-16T05:15:16;12.23;;;4.20;;
47844;SDS011;33605;48.822;8.796;2024-01-16T05:17:41;5.90;;;4.30;;
47844;SDS011;33605;48.822;8.796;2024-01-16T05:20:07;7.40;;;4.20;;
47844;SDS011;33605;48.822;8.796;2024-01-16T05:22:36;5.03;;;3.93;;
47844;SDS011;33605;48.822;8.796;2024-01-16T05:25:04;6.97;;;4.17;;
47844;SDS011;33605;48.822;8.796;2024-01-16T05:27:32;7.97;;;4.40;;
47844;SDS011;33605;48.822;8.796;2024-01-16T05:29:58;4.93;;;3.80;;
47844;SDS011;33605;48.822;8.796;2024-01-16T05:32:24;6.17;;;3.87;;
47844;SDS011;33605;48.822;8.796;2024-01-16T05:34:50;5.03;;;4.37;;
47844;SDS011;33605;48.822;8.796;2024-01-16T05:37:16;8.23;;;4.40;;
47844;SDS011;33605;48.822;8.796;2024-01-16T05:39:42;7.07;;;4.03;;
47844;SDS011;33605;48.822;8.796;2024-01-16T05:42:08;4.97;;;3.40;;
47844;SDS011;33605;48.822;8.796;2024-01-16T05:44:40;7.00;;;4.30;;
47844;SDS011;33605;48.822;8.796;2024-01-16T05:47:06;6.17;;;3.83;;
47844;SDS011;33605;48.822;8.796;2024-01-16T05:49:31;5.90;;;3.70;;
47844;SDS011;33605;48.822;8.796;2024-01-16T05:51:57;7.53;;;4.00;;
47844;SDS011;33605;48.822;8.796;2024-01-16T05:54:23;4.43;;;3.70;;
47844;SDS011;33605;48.822;8.796;2024-01-16T05:56:52;5.77;;;3.93;;
47844;SDS011;33605;48.822;8.796;2024-01-16T05:59:17;4.90;;;3.70;;
47844;SDS011;33605;48.822;8.796;2024-01-16T06:01:43;10.90;;;4.80;;
47844;SDS011;33605;48.822;8.796;2024-01-16T06:04:14;9.93;;;5.00;;
47844;SDS011;33605;48.822;8.796;2024-01-16T06:06:40;8.60;;;5.23;;
47844;SDS011;33605;48.822;8.796;2024-01-16T06:09:10;9.30;;;4.43;;
47844;SDS011;33605;48.822;8.796;2024-01-16T06:11:41;5.83;;;4.13;;
47844;SDS011;33605;48.822;8.796;2024-01-16T06:14:07;6.30;;;3.80;;
47844;SDS011;33605;48.822;8.796;2024-01-16T06:16:33;5.77;;;3.90;;
47844;SDS011;33605;48.822;8.796;2024-01-16T06:19:02;11.17;;;4.90;;
47844;SDS011;33605;48.822;8.796;2024-01-16T06:21:30;5.80;;;4.50;;
47844;SDS011;33605;48.822;8.796;2024-01-16T06:23:58;5.27;;;4.20;;
47844;SDS011;33605;48.822;8.796;2024-01-16T06:26:24;9.23;;;4.27;;
47844;SDS011;33605;48.822;8.796;2024-01-16T06:28:52;7.80;;;4.13;;
47844;SDS011;33605;48.822;8.796;2024-01-16T06:31:18;5.07;;;4.03;;
47844;SDS011;33605;48.822;8.796;2024-01-16T06:33:46;7.53;;;4.27;;
47844;SDS011;33605;48.822;8.796;2024-01-16T06:36:12;9.57;;;4.57;;
47844;SDS011;33605;48.822;8.796;2024-01-16T06:38:38;7.50;;;5.07;;
47844;SDS011;33605;48.822;8.796;2024-01-16T06:41:05;5.60;;;4.87;;
47844;SDS011;33605;48.822;8.796;2024-01-16T06:43:31;9.13;;;6.10;;
47844;SDS011;33605;48.822;8.796;2024-01-16T06:45:56;7.23;;;4.87;;
47844;SDS011;33605;48.822;8.796;2024-01-16T06:48:22;7.27;;;4.30;;
47844;SDS011;33605;48.822;8.796;2024-01-16T06:50:47;8.37;;;4.63;;
47844;SDS011;33605;48.822;8.796;2024-01-16T06:53:13;10.80;;;4.90;;
47844;SDS011;33605;48.822;8.796;2024-01-16T06:55:39;9.00;;;4.30;;
47844;SDS011;33605;48.822;8.796;2024-01-16T06:58:04;9.63;;;4.63;;
47844;SDS011;33605;48.822;8.796;2024-01-16T07:00:30;10.10;;;4.97;;
47844;SDS011;33605;48.822;8.796;2024-01-16T07:02:55;6.10;;;4.80;;
47844;SDS011;33605;48.822;8.796;2024-01-16T07:05:22;6.53;;;5.20;;
47844;SDS011;33605;48.822;8.796;2024-01-16T07:07:48;7.17;;;4.20;;
47844;SDS011;33605;48.822;8.796;2024-01-16T07:10:13;6.20;;;3.80;;
47844;SDS011;33605;48.822;8.796;2024-01-16T07:12:43;8.00;;;4.40;;
47844;SDS011;33605;48.822;8.796;2024-01-16T07:15:10;7.60;;;4.50;;
47844;SDS011;33605;48.822;8.796;2024-01-16T07:17:35;9.43;;;4.77;;
47844;SDS011;33605;48.822;8.796;2024-01-16T07:20:01;5.27;;;4.27;;
47844;SDS011;33605;48.822;8.796;2024-01-16T07:22:27;7.70;;;4.67;;
47844;SDS011;33605;48.822;8.796;2024-01-16T07:24:52;8.03;;;4.50;;
47844;SDS011;33605;48.822;8.796;2024-01-16T07:27:18;9.60;;;4.90;;
47844;SDS011;33605;48.822;8.796;2024-01-16T07:29:44;7.10;;;4.20;;
47844;SDS011;33605;48.822;8.796;2024-01-16T07:32:10;6.30;;;4.07;;
47844;SDS011;33605;48.822;8.796;2024-01-16T07:34:36;8.50;;;3.97;;
47844;SDS011;33605;48.822;8.796;2024-01-16T07:37:01;7.47;;;4.00;;
47844;SDS011;33605;48.822;8.796;2024-01-16T07:39:27;8.50;;;4.77;;
47844;SDS011;33605;48.822;8.796;2024-01-16T07:41:53;4.50;;;4.00;;
47844;SDS011;33605;48.822;8.796;2024-01-16T07:44:18;7.67;;;4.30;;
47844;SDS011;33605;48.822;8.796;2024-01-16T07:46:44;6.87;;;4.77;;
47844;SDS011;33605;48.822;8.796;2024-01-16T07:49:10;5.33;;;4.53;;
47844;SDS011;33605;48.822;8.796;2024-01-16T07:51:35;5.20;;;4.00;;
47844;SDS011;33605;48.822;8.796;2024-01-16T07:54:05;6.87;;;4.10;;
47844;SDS011;33605;48.822;8.796;2024-01-16T07:56:32;8.60;;;5.20;;
47844;SDS011;33605;48.822;8.796;2024-01-16T07:58:58;8.97;;;4.23;;
47844;SDS011;33605;48.822;8.796;2024-01-16T08:01:24;9.20;;;4.50;;
47844;SDS011;33605;48.822;8.796;2024-01-16T08:03:50;6.50;;;4.60;;
47844;SDS011;33605;48.822;8.796;2024-01-16T08:06:16;9.30;;;4.57;;
47844;SDS011;33605;48.822;8.796;2024-01-16T08:08:42;5.33;;;4.20;;
47844;SDS011;33605;48.822;8.796;2024-01-16T08:11:07;5.73;;;4.23;;
47844;SDS011;33605;48.822;8.796;2024-01-16T08:13:33;6.70;;;4.30;;
47844;SDS011;33605;48.822;8.796;2024-01-16T08:15:59;9.20;;;4.50;;
47844;SDS011;33605;48.822;8.796;2024-01-16T08:18:24;9.30;;;4.17;;
47844;SDS011;33605;48.822;8.796;2024-01-16T08:20:50;7.00;;;4.47;;
47844;SDS011;33605;48.822;8.796;2024-01-16T08:23:15;8.43;;;4.80;;
47844;SDS011;33605;48.822;8.796;2024-01-16T08:25:41;7.70;;;5.33;;
47844;SDS011;33605;48.822;8.796;2024-01-16T08:28:07;8.47;;;4.70;;
47844;SDS011;33605;48.822;8.796;2024-01-16T08:30:32;6.73;;;4.73;;
47844;SDS011;33605;48.822;8.796;2024-01-16T08:32:58;8.70;;;4.23;;
47844;SDS011;33605;48.822;8.796;2024-01-16T08:35:24;7.13;;;4.20;;
47844;SDS011;33605;48.822;8.796;2024-01-16T08:37:49;7.67;;;4.30;;
47844;SDS011;33605;48.822;8.796;2024-01-16T08:40:15;8.80;;;4.63;;
47844;SDS011;33605;48.822;8.796;2024-01-16T08:42:41;8.33;;;5.33;;
47844;SDS011;33605;48.822;8.796;2024-01-16T08:45:06;8.40;;;4.57;;
47844;SDS011;33605;48.822;8.796;2024-01-16T08:47:32;5.93;;;4.60;;
47844;SDS011;33605;48.822;8.796;2024-01-16T08:49:57;7.23;;;4.77;;
47844;SDS011;33605;48.822;8.796;2024-01-16T08:52:23;7.80;;;4.70;;
47844;SDS011;33605;48.822;8.796;2024-01-16T08:54:49;6.77;;;4.23;;
47844;SDS011;33605;48.822;8.796;2024-01-16T08:57:14;7.57;;;4.50;;
47844;SDS011;33605;48.822;8.796;2024-01-16T08:59:41;10.07;;;5.00;;
47844;SDS011;33605;48.822;8.796;2024-01-16T09:02:06;9.97;;;5.37;;
47844;SDS011;33605;48.822;8.796;2024-01-16T09:04:32;8.57;;;5.20;;
47844;SDS011;33605;48.822;8.796;2024-01-16T09:06:59;7.07;;;4.67;;
47844;SDS011;33605;48.822;8.796;2024-01-16T09:09:24;10.83;;;6.53;;
47844;SDS011;33605;48.822;8.796;2024-01-16T09:11:50;8.50;;;5.47;;
47844;SDS011;33605;48.822;8.796;2024-01-16T09:14:15;9.57;;;5.50;;
47844;SDS011;33605;48.822;8.796;2024-01-16T09:16:41;7.00;;;5.00;;
47844;SDS011;33605;48.822;8.796;2024-01-16T09:19:07;10.63;;;5.03;;
47844;SDS011;33605;48.822;8.796;2024-01-16T09:21:34;9.53;;;4.33;;
47844;SDS011;33605;48.822;8.796;2024-01-16T09:24:00;7.83;;;4.80;;
47844;SDS011;33605;48.822;8.796;2024-01-16T09:26:26;7.67;;;4.53;;
47844;SDS011;33605;48.822;8.796;2024-01-16T09:28:52;6.70;;;4.57;;
47844;SDS011;33605;48.822;8.796;2024-01-16T09:31:18;13.67;;;5.20;;
47844;SDS011;33605;48.822;8.796;2024-01-16T09:33:44;6.27;;;4.40;;
47844;SDS011;33605;48.822;8.796;2024-01-16T09:36:10;9.20;;;4.67;;
47844;SDS011;33605;48.822;8.796;2024-01-16T09:38:36;5.67;;;3.87;;
47844;SDS011;33605;48.822;8.796;2024-01-16T09:41:02;6.97;;;4.80;;
47844;SDS011;33605;48.822;8.796;2024-01-16T09:43:28;6.93;;;4.73;;
47844;SDS011;33605;48.822;8.796;2024-01-16T09:45:56;7.47;;;4.27;;
47844;SDS011;33605;48.822;8.796;2024-01-16T09:48:26;6.80;;;4.60;;
47844;SDS011;33605;48.822;8.796;2024-01-16T09:50:53;7.13;;;4.40;;
47844;SDS011;33605;48.822;8.796;2024-01-16T09:53:19;12.33;;;5.30;;
47844;SDS011;33605;48.822;8.796;2024-01-16T09:55:45;5.90;;;4.37;;
47844;SDS011;33605;48.822;8.796;2024-01-16T09:58:12;6.60;;;4.20;;
47844;SDS011;33605;48.822;8.796;2024-01-16T10:00:39;6.20;;;4.00;;
47844;SDS011;33605;48.822;8.796;2024-01-16T10:03:06;6.73;;;4.50;;
47844;SDS011;33605;48.822;8.796;2024-01-16T10:05:32;9.23;;;4.70;;
47844;SDS011;33605;48.822;8.796;2024-01-16T10:07:58;7.43;;;3.90;;
47844;SDS011;33605;48.822;8.796;2024-01-16T10:10:24;6.00;;;4.30;;
47844;SDS011;33605;48.822;8.796;2024-01-16T10:12:53;4.43;;;3.47;;
47844;SDS011;33605;48.822;8.796;2024-01-16T10:15:19;5.70;;;4.20;;
47844;SDS011;33605;48.822;8.796;2024-01-16T10:17:46;7.30;;;3.50;;
47844;SDS011;33605;48.822;8.796;2024-01-16T10:20:12;8.33;;;5.20;;
47844;SDS011;33605;48.822;8.796;2024-01-16T10:22:38;5.47;;;3.80;;
47844;SDS011;33605;48.822;8.796;2024-01-16T10:27:32;4.13;;;3.70;;
47844;SDS011;33605;48.822;8.796;2024-01-16T10:29:58;8.17;;;4.40;;
47844;SDS011;33605;48.822;8.796;2024-01-16T10:32:28;6.10;;;3.90;;
47844;SDS011;33605;48.822;8.796;2024-01-16T10:40:14;8.50;;;3.70;;
47844;SDS011;33605;48.822;8.796;2024-01-16T10:42:40;5.20;;;3.30;;
47844;SDS011;33605;48.822;8.796;2024-01-16T10:45:06;6.63;;;3.57;;
47844;SDS011;33605;48.822;8.796;2024-01-16T10:47:33;8.47;;;3.20;;
47844;SDS011;33605;48.822;8.796;2024-01-16T10:50:02;5.43;;;3.40;;
47844;SDS011;33605;48.822;8.796;2024-01-16T10:52:28;5.90;;;3.20;;
47844;SDS011;33605;48.822;8.796;2024-01-16T10:54:56;7.07;;;3.10;;
47844;SDS011;33605;48.822;8.796;2024-01-16T10:57:24;6.10;;;2.90;;
47844;SDS011;33605;48.822;8.796;2024-01-16T10:59:55;3.90;;;2.80;;
47844;SDS011;33605;48.822;8.796;2024-01-16T11:02:26;6.83;;;3.20;;
47844;SDS011;33605;48.822;8.796;2024-01-16T11:04:54;7.57;;;3.40;;
47844;SDS011;33605;48.822;8.796;2024-01-16T11:07:20;9.17;;;3.20;;
47844;SDS011;33605;48.822;8.796;2024-01-16T11:09:47;4.10;;;3.07;;
47844;SDS011;33605;48.822;8.796;2024-01-16T11:12:14;4.60;;;3.40;;
47844;SDS011;33605;48.822;8.796;2024-01-16T11:14:43;4.27;;;2.90;;
47844;SDS011;33605;48.822;8.796;2024-01-16T11:17:10;5.47;;;3.10;;
47844;SDS011;33605;48.822;8.796;2024-01-16T11:19:42;2.63;;;2.37;;
47844;SDS011;33605;48.822;8.796;2024-01-16T11:22:08;6.23;;;2.90;;
47844;SDS011;33605;48.822;8.796;2024-01-16T11:24:35;4.27;;;3.27;;
47844;SDS011;33605;48.822;8.796;2024-01-16T11:27:01;5.37;;;3.13;;
47844;SDS011;33605;48.822;8.796;2024-01-16T11:31:53;3.50;;;2.77;;
47844;SDS011;33605;48.822;8.796;2024-01-16T11:37:05;4.07;;;2.77;;
47844;SDS011;33605;48.822;8.796;2024-01-16T11:39:32;7.63;;;2.90;;
47844;SDS011;33605;48.822;8.796;2024-01-16T11:41:59;3.53;;;2.53;;
47844;SDS011;33605;48.822;8.796;2024-01-16T11:47:09;4.37;;;2.60;;
47844;SDS011;33605;48.822;8.796;2024-01-16T11:49:36;2.77;;;2.30;;
47844;SDS011;33605;48.822;8.796;2024-01-16T11:52:02;6.43;;;2.40;;
47844;SDS011;33605;48.822;8.796;2024-01-16T11:54:28;3.67;;;2.27;;
47844;SDS011;33605;48.822;8.796;2024-01-16T12:01:58;3.27;;;2.30;;
47844;SDS011;33605;48.822;8.796;2024-01-16T12:04:24;3.10;;;1.83;;
47844;SDS011;33605;48.822;8.796;2024-01-16T12:06:58;2.83;;;2.03;;
47844;SDS011;33605;48.822;8.796;2024-01-16T12:09:25;2.10;;;1.63;;
47844;SDS011;33605;48.822;8.796;2024-01-16T12:12:01;3.00;;;1.97;;
47844;SDS011;33605;48.822;8.796;2024-01-16T12:14:27;3.53;;;2.23;;
47844;SDS011;33605;48.822;8.796;2024-01-16T12:17:15;3.43;;;1.40;;
47844;SDS011;33605;48.822;8.796;2024-01-16T12:19:41;2.90;;;1.90;;
47844;SDS011;33605;48.822;8.796;2024-01-16T12:22:08;3.73;;;1.80;;
47844;SDS011;33605;48.822;8.796;2024-01-16T12:24:37;3.57;;;2.20;;
47844;SDS011;33605;48.822;8.796;2024-01-16T12:27:04;3.60;;;2.23;;
47844;SDS011;33605;48.822;8.796;2024-01-16T12:29:30;3.73;;;2.00;;
47844;SDS011;33605;48.822;8.796;2024-01-16T12:32:06;6.63;;;2.23;;
47844;SDS011;33605;48.822;8.796;2024-01-16T12:34:32;3.43;;;2.10;;
47844;SDS011;33605;48.822;8.796;2024-01-16T12:37:04;3.37;;;1.83;;
47844;SDS011;33605;48.822;8.796;2024-01-16T12:39:34;4.17;;;1.90;;
47844;SDS011;33605;48.822;8.796;2024-01-16T12:42:00;3.00;;;1.77;;
47844;SDS011;33605;48.822;8.796;2024-01-16T12:44:29;1.93;;;1.80;;
47844;SDS011;33605;48.822;8.796;2024-01-16T12:46:56;2.90;;;1.90;;
47844;SDS011;33605;48.822;8.796;2024-01-16T12:49:22;3.90;;;1.80;;
47844;SDS011;33605;48.822;8.796;2024-01-16T12:51:49;1.80;;;1.67;;
47844;SDS011;33605;48.822;8.796;2024-01-16T12:54:16;2.90;;;1.63;;
47844;SDS011;33605;48.822;8.796;2024-01-16T12:56:43;3.00;;;2.00;;
47844;SDS011;33605;48.822;8.796;2024-01-16T12:59:10;3.23;;;1.87;;
47844;SDS011;33605;48.822;8.796;2024-01-16T13:01:39;2.50;;;1.73;;
47844;SDS011;33605;48.822;8.796;2024-01-16T13:04:07;3.33;;;1.80;;
47844;SDS011;33605;48.822;8.796;2024-01-16T13:06:33;3.40;;;2.40;;
47844;SDS011;33605;48.822;8.796;2024-01-16T13:09:09;2.20;;;2.00;;
47844;SDS011;33605;48.822;8.796;2024-01-16T13:11:51;3.10;;;2.10;;
47844;SDS011;33605;48.822;8.796;2024-01-16T13:14:18;3.27;;;1.80;;
47844;SDS011;33605;48.822;8.796;2024-01-16T13:16:46;6.83;;;2.13;;
47844;SDS011;33605;48.822;8.796;2024-01-16T13:19:12;3.30;;;2.07;;
47844;SDS011;33605;48.822;8.796;2024-01-16T13:21:41;1.97;;;1.70;;
47844;SDS011;33605;48.822;8.796;2024-01-16T13:24:07;4.33;;;1.90;;
47844;SDS011;33605;48.822;8.796;2024-01-16T13:26:33;3.83;;;1.70;;
47844;SDS011;33605;48.822;8.796;2024-01-16T13:28:59;2.93;;;2.03;;
47844;SDS011;33605;48.822;8.796;2024-01-16T13:31:25;2.53;;;1.73;;
47844;SDS011;33605;48.822;8.796;2024-01-16T13:33:51;2.27;;;1.93;;
47844;SDS011;33605;48.822;8.796;2024-01-16T13:36:17;1.97;;;1.63;;
47844;SDS011;33605;48.822;8.796;2024-01-16T13:38:43;2.17;;;1.97;;
47844;SDS011;33605;48.822;8.796;2024-01-16T13:41:09;3.10;;;2.00;;
47844;SDS011;33605;48.822;8.796;2024-01-16T13:43:36;2.87;;;1.90;;
47844;SDS011;33605;48.822;8.796;2024-01-16T13:46:03;2.53;;;2.10;;
47844;SDS011;33605;48.822;8.796;2024-01-16T13:48:29;4.30;;;1.90;;
47844;SDS011;33605;48.822;8.796;2024-01-16T13:50:55;3.03;;;2.20;;
47844;SDS011;33605;48.822;8.796;2024-01-16T13:53:24;2.30;;;2.07;;
47844;SDS011;33605;48.822;8.796;2024-01-16T13:55:50;3.60;;;2.50;;
47844;SDS011;33605;48.822;8.796;2024-01-16T13:58:16;3.57;;;2.10;;
47844;SDS011;33605;48.822;8.796;2024-01-16T14:00:43;1.90;;;1.80;;
47844;SDS011;33605;48.822;8.796;2024-01-16T14:03:09;3.43;;;2.10;;
47844;SDS011;33605;48.822;8.796;2024-01-16T14:05:35;3.20;;;2.17;;
47844;SDS011;33605;48.822;8.796;2024-01-16T14:08:01;3.13;;;2.13;;
47844;SDS011;33605;48.822;8.796;2024-01-16T14:10:28;2.80;;;1.83;;
47844;SDS011;33605;48.822;8.796;2024-01-16T14:12:57;3.70;;;2.13;;
47844;SDS011;33605;48.822;8.796;2024-01-16T14:15:23;2.60;;;2.27;;
47844;SDS011;33605;48.822;8.796;2024-01-16T14:17:55;2.80;;;2.33;;
47844;SDS011;33605;48.822;8.796;2024-01-16T14:20:23;3.13;;;2.17;;
47844;SDS011;33605;48.822;8.796;2024-01-16T14:22:51;5.43;;;2.27;;
47844;SDS011;33605;48.822;8.796;2024-01-16T14:25:17;9.87;;;2.47;;
47844;SDS011;33605;48.822;8.796;2024-01-16T14:27:57;3.60;;;2.33;;
47844;SDS011;33605;48.822;8.796;2024-01-16T14:30:23;3.13;;;2.23;;
47844;SDS011;33605;48.822;8.796;2024-01-16T14:32:50;3.00;;;2.20;;
47844;SDS011;33605;48.822;8.796;2024-01-16T14:35:16;2.80;;;2.03;;
47844;SDS011;33605;48.822;8.796;2024-01-16T14:37:43;3.40;;;2.27;;
47844;SDS011;33605;48.822;8.796;2024-01-16T14:40:10;2.33;;;1.90;;
47844;SDS011;33605;48.822;8.796;2024-01-16T14:42:48;3.00;;;2.13;;
47844;SDS011;33605;48.822;8.796;2024-01-16T14:45:16;3.50;;;2.67;;
47844;SDS011;33605;48.822;8.796;2024-01-16T14:47:43;3.10;;;2.27;;
47844;SDS011;33605;48.822;8.796;2024-01-16T14:50:12;3.77;;;2.30;;
47844;SDS011;33605;48.822;8.796;2024-01-16T14:52:39;2.80;;;2.20;;
47844;SDS011;33605;48.822;8.796;2024-01-16T14:55:05;2.93;;;2.33;;
47844;SDS011;33605;48.822;8.796;2024-01-16T14:57:32;4.80;;;2.00;;
47844;SDS011;33605;48.822;8.796;2024-01-16T15:00:06;3.10;;;2.00;;
47844;SDS011;33605;48.822;8.796;2024-01-16T15:02:48;3.47;;;2.27;;
47844;SDS011;33605;48.822;8.796;2024-01-16T15:05:17;5.93;;;2.47;;